Axtell, KS

2:48 PM CST on March 05, 2015 (GMT -0600)
Brenner | Change Station
CLOSE
Current Station
Airport
Location: Falls City,
Elevation: 984 ft
Nearby Weather Stations

Elev 984 ft 40.08 °N, 95.59 °W | Updated 55 minutes ago

Clear
Clear
28 °F
Feels Like 22 °F
N
6
Wind Variable Wind from SE

Today
High -- | Low -- °F
--% Chance of Precip.
Yesterday
High -- | Low -- °F
Precip. -- in
6:52 AM 6:21 PM
Full, 100% visible
Pressure 30.54 in
Visibility 10.0 miles
Clouds Clear
Windchill 22 °F
Dew Point 0 °F
Humidity 30%
Rainfall 0.00 in
Snow Depth Not available.
UV 5 out of 12
Pollen .50 out of 12
Air Quality Not available.
Flu Activity Not available.
METAR KFNB 051953Z AUTO 14005KT 10SM CLR M02/M18 A3049 RMK AO2 SLP342 T10221178

More Conditions Fewer Conditions

Pressure 30.54 in
Visibility 10.0 miles
Clouds Clear
Windchill 22 °F
Dew Point 0 °F
Humidity 30%
Rainfall 0.00 in
Snow Depth Not available.
UV 5 out of 12
Pollen .50 out of 12
Air Quality Not available.
Flu Activity Not available.
METAR KFNB 051953Z AUTO 14005KT 10SM CLR M02/M18 A3049 RMK AO2 SLP342 T10221178

More Conditions Fewer Conditions

10-Day Weather Forecast

Almanac

Astronomy

Mar. 05, 2015 Rise Set
Actual Time
Civil Twilight
Nautical Twilight
Astronomical Twilight
Moon
Length of Visible Light
Length of Day
Tomorrow will be .
, % of the Moon is Illuminated

Today's Extremes

State Highs State Lows

Community

WunderPhotos

Upload Photos

1,802,964 photos uploaded!

WunderBlogs® & News

Nearby

Air Quality

  Air Quality AQ Index Pollutant
Not available.

Snow Depth

Station Depth Elevation

Earthquake Activity

City Distance Mag. Time & Date
Minimum magnitude displayed is 2.5.

Coastal Water Temperatures

Place Temperature

Nearby Weather Stations